createdAt,value
2018-12-12T00:01:21.204Z,3.90
2018-12-12T00:03:48.964Z,4.01
2018-12-12T00:06:16.503Z,4.18
2018-12-12T00:08:44.012Z,4.11
2018-12-12T00:11:11.867Z,3.78
2018-12-12T00:13:39.417Z,3.67
2018-12-12T00:16:06.943Z,4.28
2018-12-12T00:18:34.496Z,4.59
2018-12-12T00:21:02.015Z,4.64
2018-12-12T00:23:29.572Z,4.55
2018-12-12T00:25:57.072Z,4.58
2018-12-12T00:28:24.581Z,4.45
2018-12-12T00:30:52.126Z,4.02
2018-12-12T00:33:19.654Z,3.84
2018-12-12T00:35:47.486Z,3.77
2018-12-12T00:38:15.019Z,3.70
2018-12-12T00:40:42.528Z,3.79
2018-12-12T00:43:10.071Z,3.59
2018-12-12T00:45:37.581Z,3.67
2018-12-12T00:48:05.464Z,3.60
2018-12-12T00:50:32.995Z,3.76
2018-12-12T00:53:00.526Z,4.03
2018-12-12T00:55:28.705Z,3.74
2018-12-12T00:57:56.412Z,3.70
2018-12-12T01:00:23.973Z,3.96
2018-12-12T01:02:51.487Z,4.25
2018-12-12T01:05:19.027Z,3.78
2018-12-12T01:07:46.573Z,4.04
2018-12-12T01:10:14.187Z,3.94
2018-12-12T01:12:41.739Z,4.13
2018-12-12T01:15:09.325Z,3.92
2018-12-12T01:17:36.864Z,4.53
2018-12-12T01:20:05.613Z,4.14
2018-12-12T01:22:33.116Z,4.27
2018-12-12T01:25:00.690Z,4.00
2018-12-12T01:27:28.197Z,3.80
2018-12-12T01:29:55.699Z,3.82
2018-12-12T01:32:23.238Z,3.81
2018-12-12T01:34:50.751Z,3.61
2018-12-12T01:37:19.320Z,3.52
2018-12-12T01:39:46.831Z,3.45
2018-12-12T01:42:14.343Z,4.06
2018-12-12T01:44:41.896Z,3.80
2018-12-12T01:47:09.414Z,3.74
2018-12-12T01:49:36.951Z,4.09
2018-12-12T01:52:04.496Z,4.27
2018-12-12T01:54:32.007Z,3.61
2018-12-12T01:56:59.553Z,3.54
2018-12-12T01:59:27.059Z,3.30
2018-12-12T02:01:54.607Z,3.25
2018-12-12T02:04:22.283Z,3.53
2018-12-12T02:06:49.937Z,3.49
2018-12-12T02:09:17.447Z,4.13
2018-12-12T02:11:44.944Z,4.58
2018-12-12T02:14:12.484Z,4.69
2018-12-12T02:16:39.984Z,3.97
2018-12-12T02:19:07.945Z,3.76
2018-12-12T02:21:35.502Z,3.65
2018-12-12T02:24:03.043Z,3.95
2018-12-12T02:26:30.563Z,4.19
2018-12-12T02:28:58.132Z,4.40
2018-12-12T02:31:25.649Z,4.33
2018-12-12T02:33:53.221Z,4.37
2018-12-12T02:36:20.765Z,4.33
2018-12-12T02:38:48.296Z,4.28
2018-12-12T02:41:15.849Z,4.31
2018-12-12T02:43:43.360Z,4.28
2018-12-12T02:46:11.006Z,4.32
2018-12-12T02:48:38.543Z,4.65
2018-12-12T02:51:06.063Z,4.68
2018-12-12T02:53:33.876Z,4.46
2018-12-12T02:56:01.384Z,4.44
2018-12-12T02:58:28.896Z,4.42
2018-12-12T03:00:56.486Z,4.55
2018-12-12T03:03:24.001Z,4.36
2018-12-12T03:05:51.809Z,4.33
2018-12-12T03:08:19.321Z,4.51
2018-12-12T03:10:46.860Z,4.72
2018-12-12T03:13:14.443Z,4.56
2018-12-12T03:15:41.973Z,4.29
2018-12-12T03:18:09.536Z,4.19
2018-12-12T03:20:37.048Z,4.13
2018-12-12T03:23:04.561Z,4.06
2018-12-12T03:25:32.220Z,4.02
2018-12-12T03:27:59.728Z,3.94
2018-12-12T03:30:27.288Z,3.95
2018-12-12T03:32:54.847Z,4.09
2018-12-12T03:35:22.352Z,4.21
2018-12-12T03:37:49.917Z,4.10
2018-12-12T03:40:17.728Z,4.18
2018-12-12T03:42:45.872Z,4.08
2018-12-12T03:45:13.685Z,4.03
2018-12-12T03:47:41.227Z,4.12
2018-12-12T03:50:08.959Z,3.76
2018-12-12T03:52:36.494Z,3.58
2018-12-12T03:55:05.539Z,3.68
2018-12-12T03:57:33.071Z,3.44
2018-12-12T04:00:00.580Z,3.35
2018-12-12T04:02:28.126Z,3.11
2018-12-12T04:04:55.913Z,3.69
2018-12-12T04:07:23.455Z,4.09
2018-12-12T04:09:50.963Z,3.77
2018-12-12T04:12:18.575Z,4.02
2018-12-12T04:14:46.087Z,4.02
2018-12-12T04:17:13.593Z,4.07
2018-12-12T04:19:41.238Z,3.96
2018-12-12T04:22:08.748Z,3.30
2018-12-12T04:24:36.307Z,3.32
2018-12-12T04:27:03.821Z,3.31
2018-12-12T04:29:31.491Z,3.84
2018-12-12T04:31:59.016Z,3.64
2018-12-12T04:34:26.553Z,3.35
2018-12-12T04:36:54.130Z,3.29
2018-12-12T04:39:21.644Z,2.95
2018-12-12T04:41:49.200Z,2.70
2018-12-12T04:44:16.728Z,2.55
2018-12-12T04:46:44.353Z,2.51
2018-12-12T04:49:11.864Z,2.63
2018-12-12T04:51:39.589Z,2.98
2018-12-12T04:54:07.121Z,2.79
2018-12-12T04:56:34.757Z,2.20
2018-12-12T04:59:02.596Z,2.33
2018-12-12T05:01:30.125Z,2.02
2018-12-12T05:03:58.265Z,1.94
2018-12-12T05:06:25.772Z,2.00
2018-12-12T05:08:53.275Z,1.87
2018-12-12T05:11:20.816Z,2.12
2018-12-12T05:13:48.356Z,2.02
2018-12-12T05:16:15.939Z,1.99
2018-12-12T05:18:43.451Z,1.96
2018-12-12T05:21:11.082Z,1.80
2018-12-12T05:23:38.619Z,1.60
2018-12-12T05:26:06.225Z,1.48
2018-12-12T05:28:33.799Z,1.78
2018-12-12T05:31:01.539Z,1.80
2018-12-12T05:33:29.059Z,1.75
2018-12-12T05:35:56.672Z,1.60
2018-12-12T05:38:24.222Z,1.53
2018-12-12T05:40:51.903Z,1.39
2018-12-12T05:43:19.424Z,1.27
2018-12-12T05:45:47.237Z,1.33
2018-12-12T05:48:14.799Z,1.15
2018-12-12T05:50:42.343Z,1.69
2018-12-12T05:53:10.019Z,2.13
2018-12-12T05:55:37.535Z,1.35
2018-12-12T05:58:05.229Z,1.15
2018-12-12T06:00:32.793Z,1.29
2018-12-12T06:03:00.317Z,1.71
2018-12-12T06:05:28.227Z,1.66
2018-12-12T06:07:55.735Z,1.85
2018-12-12T06:10:23.256Z,1.85
2018-12-12T06:12:50.831Z,1.76
2018-12-12T06:15:18.347Z,1.61
2018-12-12T06:17:46.243Z,1.67
2018-12-12T06:20:13.763Z,1.66
2018-12-12T06:22:41.482Z,1.66
2018-12-12T06:25:09.036Z,1.98
2018-12-12T06:27:36.559Z,1.90
2018-12-12T06:30:06.148Z,1.88
2018-12-12T06:32:33.667Z,1.83
2018-12-12T06:35:01.183Z,2.00
2018-12-12T06:37:28.736Z,2.05
2018-12-12T06:39:56.270Z,2.08
2018-12-12T06:42:23.967Z,2.12
2018-12-12T06:44:51.491Z,2.08
2018-12-12T06:47:19.247Z,2.10
2018-12-12T06:49:46.809Z,2.11
2018-12-12T06:52:14.323Z,2.18
2018-12-12T06:54:41.871Z,2.13
2018-12-12T06:57:09.383Z,2.23
2018-12-12T06:59:36.903Z,2.15
2018-12-12T07:02:04.567Z,2.23
2018-12-12T07:04:32.243Z,2.36
2018-12-12T07:07:00.387Z,2.36
2018-12-12T07:09:27.903Z,2.29
2018-12-12T07:11:55.532Z,2.16
2018-12-12T07:14:23.079Z,2.21
2018-12-12T07:16:50.600Z,2.22
2018-12-12T07:19:18.313Z,2.26
2018-12-12T07:21:45.859Z,2.32
2018-12-12T07:24:13.376Z,2.33
2018-12-12T07:26:40.923Z,2.46
2018-12-12T07:29:08.441Z,2.49
2018-12-12T07:31:36.188Z,2.50
2018-12-12T07:34:03.802Z,2.41
2018-12-12T07:36:31.324Z,2.44
2018-12-12T07:38:58.879Z,2.30
2018-12-12T07:41:26.499Z,2.21
2018-12-12T07:43:54.296Z,2.24
2018-12-12T07:46:22.615Z,2.27
2018-12-12T07:48:50.137Z,2.22
2018-12-12T07:51:17.684Z,2.24
2018-12-12T07:53:45.199Z,2.34
2018-12-12T07:56:12.912Z,2.28
2018-12-12T07:58:40.443Z,2.34
2018-12-12T08:01:08.066Z,2.38
2018-12-12T08:03:35.621Z,2.34
2018-12-12T08:06:03.136Z,2.46
2018-12-12T08:08:30.816Z,2.47
2018-12-12T08:10:58.348Z,2.44
2018-12-12T08:13:25.893Z,2.42
2018-12-12T08:15:53.451Z,2.58
2018-12-12T08:18:20.987Z,2.53
2018-12-12T08:20:48.751Z,2.48
2018-12-12T08:23:16.695Z,2.42
2018-12-12T08:25:44.325Z,2.44
2018-12-12T08:28:11.971Z,2.49
2018-12-12T08:30:39.495Z,2.43
2018-12-12T08:33:11.142Z,2.47
2018-12-12T08:35:36.612Z,2.55
2018-12-12T08:38:04.132Z,2.71
2018-12-12T08:40:31.805Z,2.67
2018-12-12T08:42:59.339Z,2.61
2018-12-12T08:45:26.959Z,2.66
2018-12-12T08:47:54.578Z,2.71
2018-12-12T08:50:22.095Z,2.84
2018-12-12T08:52:49.649Z,2.89
2018-12-12T08:55:17.822Z,3.02
2018-12-12T08:57:45.739Z,2.97
2018-12-12T09:00:13.280Z,2.78
2018-12-12T09:02:40.795Z,2.84
2018-12-12T09:05:08.347Z,3.01
2018-12-12T09:07:35.868Z,3.15
2018-12-12T09:10:05.207Z,3.16
2018-12-12T09:12:32.852Z,3.16
2018-12-12T09:15:00.429Z,3.11
2018-12-12T09:17:27.944Z,3.12
2018-12-12T09:19:55.519Z,3.12
2018-12-12T09:22:23.063Z,3.22
2018-12-12T09:24:50.575Z,3.26
2018-12-12T09:27:18.125Z,3.35
2018-12-12T09:29:45.665Z,3.36
2018-12-12T09:32:13.180Z,3.41
2018-12-12T09:34:40.719Z,3.47
2018-12-12T09:37:08.235Z,3.49
2018-12-12T09:39:35.782Z,3.56
2018-12-12T09:42:03.308Z,3.60
2018-12-12T09:44:31.011Z,3.61
2018-12-12T09:46:58.572Z,3.70
2018-12-12T09:49:26.096Z,3.73
2018-12-12T09:51:54.246Z,3.67
2018-12-12T09:54:21.784Z,3.76
2018-12-12T09:56:49.595Z,3.74
2018-12-12T09:59:17.107Z,3.78
2018-12-12T10:01:44.624Z,3.90
2018-12-12T10:04:12.185Z,3.89
2018-12-12T10:06:39.713Z,3.90
2018-12-12T10:09:07.780Z,3.91
2018-12-12T10:11:35.407Z,4.00
2018-12-12T10:14:02.967Z,4.01
2018-12-12T10:16:30.610Z,4.02
2018-12-12T10:18:58.111Z,4.06
2018-12-12T10:21:25.651Z,4.10
2018-12-12T10:23:53.163Z,4.28
2018-12-12T10:26:20.711Z,4.21
2018-12-12T10:28:48.227Z,4.35
2018-12-12T10:31:15.783Z,4.48
2018-12-12T10:33:43.299Z,4.67
2018-12-12T10:36:10.852Z,4.44
2018-12-12T10:38:38.388Z,4.49
2018-12-12T10:41:05.899Z,4.50
2018-12-12T10:43:33.496Z,4.51
2018-12-12T10:46:01.004Z,4.55
2018-12-12T10:48:28.643Z,4.51
2018-12-12T10:50:56.148Z,4.51
2018-12-12T10:53:23.750Z,4.53
2018-12-12T10:55:51.372Z,4.64
2018-12-12T10:58:18.903Z,4.67
2018-12-12T11:00:48.699Z,4.76
2018-12-12T11:03:21.871Z,4.79
2018-12-12T11:05:49.524Z,4.83
2018-12-12T11:08:17.088Z,4.85
2018-12-12T11:10:44.812Z,4.84
2018-12-12T11:13:12.365Z,4.93
2018-12-12T11:15:39.936Z,4.90
2018-12-12T11:18:07.483Z,4.99
2018-12-12T11:20:35.018Z,5.02
2018-12-12T11:23:02.884Z,5.18
2018-12-12T11:25:30.431Z,5.60
2018-12-12T11:27:57.940Z,5.50
2018-12-12T11:30:25.492Z,5.49
2018-12-12T11:32:53.004Z,5.56
2018-12-12T11:35:20.543Z,5.58
2018-12-12T11:37:48.072Z,5.59
2018-12-12T11:40:15.594Z,5.64
2018-12-12T11:42:43.128Z,5.71
2018-12-12T11:45:10.686Z,5.97
2018-12-12T11:47:38.360Z,5.78
2018-12-12T11:50:05.863Z,5.70
2018-12-12T11:52:33.360Z,5.67
2018-12-12T11:55:00.884Z,5.72
2018-12-12T11:57:29.103Z,5.68
2018-12-12T11:59:56.800Z,5.80
2018-12-12T12:02:24.307Z,5.72
2018-12-12T12:04:51.808Z,5.79
2018-12-12T12:07:19.336Z,5.86
2018-12-12T12:09:46.835Z,6.03
2018-12-12T12:12:14.736Z,6.11
2018-12-12T12:14:42.304Z,6.07
2018-12-12T12:17:09.807Z,6.17
2018-12-12T12:19:37.344Z,6.00
2018-12-12T12:22:04.847Z,6.04
2018-12-12T12:24:32.963Z,5.93
2018-12-12T12:27:00.474Z,6.01
2018-12-12T12:29:27.972Z,6.01
2018-12-12T12:31:55.508Z,6.10
2018-12-12T12:34:23.011Z,6.10
2018-12-12T12:36:50.800Z,6.28
2018-12-12T12:39:18.296Z,6.03
2018-12-12T12:41:45.791Z,5.98
2018-12-12T12:44:13.319Z,6.00
2018-12-12T12:46:40.815Z,5.99
2018-12-12T12:49:08.361Z,5.94
2018-12-12T12:51:35.856Z,5.88
2018-12-12T12:54:03.510Z,5.89
2018-12-12T12:56:31.024Z,5.90
2018-12-12T12:58:58.524Z,5.88
2018-12-12T13:01:26.043Z,5.86
2018-12-12T13:03:53.539Z,5.91
2018-12-12T13:06:21.087Z,5.73
2018-12-12T13:08:48.587Z,5.88
2018-12-12T13:11:16.201Z,5.89
2018-12-12T13:13:43.791Z,5.71
2018-12-12T13:16:11.287Z,5.80
2018-12-12T13:18:39.087Z,5.96
2018-12-12T13:21:06.597Z,5.97
2018-12-12T13:23:34.096Z,5.92
2018-12-12T13:26:01.619Z,5.88
2018-12-12T13:28:29.123Z,6.09
2018-12-12T13:30:56.924Z,6.33
2018-12-12T13:33:24.443Z,6.13
2018-12-12T13:35:51.943Z,6.13
2018-12-12T13:38:19.496Z,6.20
2018-12-12T13:40:46.995Z,6.21
2018-12-12T13:43:14.736Z,6.14
2018-12-12T13:45:42.235Z,5.92
2018-12-12T13:48:09.758Z,5.99
2018-12-12T13:50:37.295Z,5.90
2018-12-12T13:53:04.819Z,5.81
2018-12-12T13:55:32.657Z,5.85
2018-12-12T13:58:00.168Z,5.70
2018-12-12T14:00:27.695Z,5.74
2018-12-12T14:02:55.220Z,5.65
2018-12-12T14:05:23.627Z,5.61
2018-12-12T14:07:51.165Z,5.55
2018-12-12T14:10:18.681Z,5.55
2018-12-12T14:12:46.336Z,5.31
2018-12-12T14:15:13.883Z,5.13
2018-12-12T14:17:41.396Z,4.97
2018-12-12T14:20:09.031Z,4.97
2018-12-12T14:22:36.539Z,4.88
2018-12-12T14:25:04.638Z,4.93
2018-12-12T14:27:38.710Z,4.91
2018-12-12T14:30:02.275Z,4.86
2018-12-12T14:32:29.840Z,4.86
2018-12-12T14:34:57.357Z,4.68
2018-12-12T14:37:25.823Z,4.65
2018-12-12T14:39:53.443Z,4.42
2018-12-12T14:42:20.988Z,4.41
2018-12-12T14:44:48.524Z,4.36
2018-12-12T14:47:16.043Z,4.13
2018-12-12T14:49:43.644Z,4.08
2018-12-12T14:52:11.172Z,4.07
2018-12-12T14:54:38.719Z,4.29
2018-12-12T14:57:06.268Z,4.21
2018-12-12T14:59:33.784Z,4.48
2018-12-12T15:02:01.431Z,4.46
2018-12-12T15:04:35.752Z,4.36
2018-12-12T15:06:59.993Z,4.59
2018-12-12T15:09:27.577Z,4.73
2018-12-12T15:11:55.109Z,4.67
2018-12-12T15:14:22.895Z,4.46
2018-12-12T15:16:50.410Z,4.48
2018-12-12T15:19:17.914Z,4.26
2018-12-12T15:21:45.454Z,4.22
2018-12-12T15:24:12.965Z,3.97
2018-12-12T15:26:40.516Z,3.73
2018-12-12T15:29:08.045Z,3.55
2018-12-12T15:31:36.175Z,3.24
2018-12-12T15:34:03.791Z,3.13
2018-12-12T15:36:31.514Z,3.19
2018-12-12T15:38:59.216Z,3.28
2018-12-12T15:41:27.353Z,3.13
2018-12-12T15:43:54.890Z,3.20
2018-12-12T15:46:22.432Z,3.14
2018-12-12T15:48:49.943Z,3.26
2018-12-12T15:51:17.511Z,3.38
2018-12-12T15:53:45.024Z,3.36
2018-12-12T15:56:12.531Z,3.32
2018-12-12T15:58:40.109Z,3.31
2018-12-12T16:01:07.623Z,3.35
2018-12-12T16:03:35.184Z,3.36
2018-12-12T16:06:02.703Z,3.38
2018-12-12T16:08:30.218Z,3.42
2018-12-12T16:10:57.753Z,3.47
2018-12-12T16:13:25.267Z,3.54
2018-12-12T16:15:52.912Z,3.59
2018-12-12T16:18:20.451Z,3.55
2018-12-12T16:20:47.979Z,3.61
2018-12-12T16:23:15.513Z,3.55
2018-12-12T16:25:43.027Z,3.55
2018-12-12T16:28:11.433Z,3.58
2018-12-12T16:30:38.944Z,3.52
2018-12-12T16:33:06.471Z,3.43
2018-12-12T16:35:34.012Z,3.42
2018-12-12T16:38:01.528Z,3.32
2018-12-12T16:40:29.224Z,3.27
2018-12-12T16:42:56.760Z,3.45
2018-12-12T16:45:24.739Z,3.67
2018-12-12T16:47:52.297Z,3.68
2018-12-12T16:50:19.811Z,3.78
2018-12-12T16:52:47.644Z,3.99
2018-12-12T16:55:15.141Z,4.11
2018-12-12T16:57:42.747Z,4.02
2018-12-12T17:00:10.540Z,4.21
2018-12-12T17:02:38.067Z,4.27
2018-12-12T17:05:06.004Z,4.21
2018-12-12T17:07:34.138Z,4.16
2018-12-12T17:10:01.672Z,4.11
2018-12-12T17:12:29.263Z,4.24
2018-12-12T17:14:56.767Z,4.32
2018-12-12T17:17:24.491Z,4.36
2018-12-12T17:19:52.043Z,4.36
2018-12-12T17:22:19.656Z,4.40
2018-12-12T17:24:47.192Z,4.44
2018-12-12T17:27:14.701Z,4.45
2018-12-12T17:29:42.384Z,4.48
2018-12-12T17:32:09.919Z,4.48
2018-12-12T17:34:37.423Z,4.49
2018-12-12T17:37:04.976Z,4.47
2018-12-12T17:39:32.540Z,4.37
2018-12-12T17:42:00.096Z,4.40
2018-12-12T17:44:27.619Z,4.37
2018-12-12T17:46:55.288Z,4.35
2018-12-12T17:49:22.795Z,4.42
2018-12-12T17:51:50.503Z,4.37
2018-12-12T17:54:18.059Z,4.41
2018-12-12T17:56:45.563Z,4.27
2018-12-12T17:59:13.134Z,4.42
2018-12-12T18:01:40.643Z,4.43
2018-12-12T18:04:08.201Z,4.46
2018-12-12T18:06:35.837Z,4.54
2018-12-12T18:09:05.436Z,4.37
2018-12-12T18:11:32.946Z,4.48
2018-12-12T18:14:00.479Z,4.55
2018-12-12T18:16:28.159Z,4.53
2018-12-12T18:18:55.695Z,4.51
2018-12-12T18:21:23.207Z,4.45
2018-12-12T18:23:50.959Z,4.48
2018-12-12T18:26:18.507Z,4.37
2018-12-12T18:28:46.012Z,4.33
2018-12-12T18:31:13.560Z,4.19
2018-12-12T18:33:41.144Z,4.25
2018-12-12T18:36:08.763Z,4.21
2018-12-12T18:38:36.303Z,4.11
2018-12-12T18:41:03.829Z,4.27
2018-12-12T18:43:31.380Z,4.03
2018-12-12T18:45:58.899Z,3.95
2018-12-12T18:48:26.432Z,3.94
2018-12-12T18:50:53.959Z,4.02
2018-12-12T18:53:21.535Z,4.00
2018-12-12T18:55:49.058Z,3.72
2018-12-12T18:58:16.568Z,3.78
2018-12-12T19:00:44.338Z,3.70
2018-12-12T19:03:11.872Z,3.68
2018-12-12T19:05:39.470Z,3.55
2018-12-12T19:08:07.188Z,3.45
2018-12-12T19:10:34.870Z,3.51
2018-12-12T19:13:02.391Z,3.56
2018-12-12T19:15:29.908Z,3.45
2018-12-12T19:17:57.451Z,3.38
2018-12-12T19:20:24.963Z,3.30
2018-12-12T19:22:52.517Z,3.16
2018-12-12T19:25:20.021Z,3.22
2018-12-12T19:27:47.794Z,3.25
2018-12-12T19:30:15.327Z,3.06
2018-12-12T19:32:42.848Z,3.10
2018-12-12T19:35:10.495Z,3.22
2018-12-12T19:37:38.620Z,3.02
2018-12-12T19:40:07.062Z,3.05
2018-12-12T19:42:34.673Z,2.85
2018-12-12T19:45:02.239Z,2.93
2018-12-12T19:47:29.776Z,2.96
2018-12-12T19:49:57.287Z,2.97
2018-12-12T19:52:25.024Z,2.88
2018-12-12T19:54:52.547Z,2.82
2018-12-12T19:57:20.083Z,2.88
2018-12-12T19:59:47.635Z,2.90
2018-12-12T20:02:15.146Z,3.00
2018-12-12T20:04:42.795Z,2.97
2018-12-12T20:07:10.319Z,2.88
2018-12-12T20:09:37.832Z,2.93
2018-12-12T20:12:05.386Z,2.94
2018-12-12T20:14:32.907Z,3.05
2018-12-12T20:17:00.496Z,3.07
2018-12-12T20:19:28.021Z,3.19
2018-12-12T20:21:55.543Z,3.22
2018-12-12T20:24:23.095Z,3.26
2018-12-12T20:26:50.628Z,3.20
2018-12-12T20:29:18.191Z,3.31
2018-12-12T20:31:45.715Z,3.40
2018-12-12T20:34:13.277Z,3.48
2018-12-12T20:36:40.819Z,3.38
2018-12-12T20:39:08.328Z,3.49
2018-12-12T20:41:35.888Z,3.38
2018-12-12T20:44:03.519Z,3.46
2018-12-12T20:46:31.035Z,3.50
2018-12-12T20:48:59.328Z,3.47
2018-12-12T20:51:26.859Z,3.39
2018-12-12T20:53:54.413Z,3.28
2018-12-12T20:56:22.032Z,3.18
2018-12-12T20:58:49.615Z,3.38
2018-12-12T21:01:17.161Z,3.29
2018-12-12T21:03:44.679Z,3.19
2018-12-12T21:06:12.452Z,3.17
2018-12-12T21:08:39.981Z,3.16
2018-12-12T21:11:07.496Z,3.33
2018-12-12T21:13:35.063Z,3.24
2018-12-12T21:16:02.583Z,3.17
2018-12-12T21:18:30.451Z,3.14
2018-12-12T21:20:57.956Z,3.33
2018-12-12T21:23:25.461Z,3.17
2018-12-12T21:25:53.315Z,3.01
2018-12-12T21:28:20.823Z,2.79
2018-12-12T21:30:48.447Z,2.75
2018-12-12T21:33:15.964Z,2.74
2018-12-12T21:35:43.488Z,2.62
2018-12-12T21:38:11.019Z,2.60
2018-12-12T21:40:38.523Z,2.59
2018-12-12T21:43:06.263Z,2.52
2018-12-12T21:45:33.772Z,2.50
2018-12-12T21:48:01.275Z,2.24
2018-12-12T21:50:28.853Z,2.17
2018-12-12T21:52:56.355Z,2.17
2018-12-12T21:55:24.198Z,2.81
2018-12-12T21:57:51.707Z,3.19
2018-12-12T22:00:19.206Z,3.46
2018-12-12T22:02:46.755Z,3.05
2018-12-12T22:05:14.259Z,3.32
2018-12-12T22:07:42.178Z,3.35
2018-12-12T22:10:09.682Z,3.17
2018-12-12T22:12:37.188Z,2.91
2018-12-12T22:15:05.760Z,2.70
2018-12-12T22:17:33.267Z,2.53
2018-12-12T22:20:00.845Z,2.29
2018-12-12T22:22:28.392Z,2.09
2018-12-12T22:24:55.891Z,2.36
2018-12-12T22:27:23.451Z,1.81
2018-12-12T22:29:50.951Z,1.51
2018-12-12T22:32:18.495Z,1.35
2018-12-12T22:34:46.013Z,1.32
2018-12-12T22:37:13.557Z,1.18
2018-12-12T22:39:41.136Z,1.06
2018-12-12T22:42:08.672Z,0.95
2018-12-12T22:44:36.203Z,0.91
2018-12-12T22:47:03.839Z,0.99
2018-12-12T22:49:31.412Z,1.07
2018-12-12T22:51:58.916Z,1.16
2018-12-12T22:54:26.418Z,1.34
2018-12-12T22:56:53.971Z,1.28
2018-12-12T22:59:21.507Z,1.38
2018-12-12T23:01:49.105Z,1.37
2018-12-12T23:04:16.640Z,1.46
2018-12-12T23:06:44.228Z,1.47
2018-12-12T23:09:11.964Z,1.97
2018-12-12T23:11:39.479Z,1.91
2018-12-12T23:14:07.048Z,1.88
2018-12-12T23:16:34.558Z,1.98
2018-12-12T23:19:02.060Z,1.95
2018-12-12T23:21:29.592Z,2.18
2018-12-12T23:23:57.116Z,2.12
2018-12-12T23:26:24.775Z,2.08
2018-12-12T23:28:52.310Z,2.00
2018-12-12T23:31:19.839Z,1.87
2018-12-12T23:33:47.375Z,1.79
2018-12-12T23:36:14.881Z,1.70
2018-12-12T23:38:42.575Z,1.81
2018-12-12T23:41:10.075Z,1.77
2018-12-12T23:43:37.588Z,1.79
2018-12-12T23:46:05.125Z,1.75
2018-12-12T23:48:32.648Z,1.66
2018-12-12T23:51:00.196Z,1.53
2018-12-12T23:53:27.703Z,1.53
2018-12-12T23:55:55.224Z,1.35
2018-12-12T23:58:22.759Z,1.47
